This is the latest recevied weather packets stored in our database for station/object UA1CAS-13. If no packets are shown the sender has not sent any weather packets the latest 10 day(s).
| Time | Temp. | Humidity | Pressure | Rain* | Wind** | Luminosity | Snow |
|---|---|---|---|---|---|---|---|
| 1777647237 | 18.89° C | 51% | 1013 hPa | - | - | - | - |
| 1777646335 | 18.89° C | 50% | 1013 hPa | - | - | - | - |
| 1777645434 | 19.44° C | 49% | 1013 hPa | - | - | - | - |
| 1777644533 | 21.11° C | 42% | 1013 hPa | - | - | - | - |
| 1777643632 | 21.67° C | 43% | 1013 hPa | - | - | - | - |
| 1777642731 | 21.67° C | 42% | 1014 hPa | - | - | - | - |
| 1777641830 | 21.11° C | 42% | 1014 hPa | - | - | - | - |
| 1777640929 | 20° C | 46% | 1014 hPa | - | - | - | - |
| 1777640028 | 20.56° C | 44% | 1014 hPa | - | - | - | - |
| 1777639127 | 18.89° C | 48% | 1015 hPa | - | - | - | - |
| 1777638226 | 19.44° C | 45% | 1015 hPa | - | - | - | - |
| 1777637325 | 17.78° C | 50% | 1015 hPa | - | - | - | - |
| 1777636424 | 20° C | 45% | 1015 hPa | - | - | - | - |
| 1777635522 | 18.33° C | 50% | 1015 hPa | - | - | - | - |
| 1777634621 | 17.22° C | 52% | 1016 hPa | - | - | - | - |
| 1777633720 | 18.33° C | 49% | 1016 hPa | - | - | - | - |
| 1777632819 | 17.22° C | 53% | 1016 hPa | - | - | - | - |
| 1777631918 | 18.33° C | 49% | 1016 hPa | - | - | - | - |
| 1777631016 | 18.89° C | 49% | 1016 hPa | - | - | - | - |
| 1777630115 | 17.78° C | 51% | 1016 hPa | - | - | - | - |
| 1777629214 | 17.78° C | 52% | 1017 hPa | - | - | - | - |
| 1777628313 | 17.22° C | 54% | 1017 hPa | - | - | - | - |
| 1777627412 | 16.11° C | 55% | 1017 hPa | - | - | - | - |
| 1777626511 | 16.11° C | 57% | 1017 hPa | - | - | - | - |
| 1777625610 | 15.56° C | 58% | 1017 hPa | - | - | - | - |
* Rain since midnight (hover to see other rain measurements)
** Current wind speed in m/s (hover to see current wind gust speed)